createdAt,value
2022-12-08T00:01:29.850Z,101166.69
2022-12-08T00:03:59.000Z,101146.88
2022-12-08T00:06:45.578Z,101150.16
2022-12-08T00:09:38.704Z,101135.94
2022-12-08T00:12:17.607Z,101136.56
2022-12-08T00:14:46.278Z,101132.84
2022-12-08T00:17:14.594Z,101134.25
2022-12-08T00:19:41.853Z,101124.19
2022-12-08T00:22:10.215Z,101123.75
2022-12-08T00:24:39.696Z,101132.41
2022-12-08T00:27:10.167Z,101134.06
2022-12-08T00:29:36.619Z,101124.97
2022-12-08T00:32:03.212Z,101119.19
2022-12-08T00:34:30.866Z,101119.19
2022-12-08T00:36:57.259Z,101110.53
2022-12-08T00:39:23.590Z,101113.81
2022-12-08T00:42:08.531Z,101104.72
2022-12-08T00:44:34.931Z,101102.66
2022-12-08T00:47:01.374Z,101090.28
2022-12-08T00:49:27.721Z,101087.59
2022-12-08T00:51:54.069Z,101085.34
2022-12-08T00:54:21.278Z,101087.41
2022-12-08T00:56:47.651Z,101080.41
2022-12-08T00:59:14.600Z,101079.56
2022-12-08T01:01:41.152Z,101078.16
2022-12-08T01:04:10.407Z,101069.50
2022-12-08T01:06:36.974Z,101078.38
2022-12-08T01:09:04.512Z,101074.28
2022-12-08T01:11:31.050Z,101072.63
2022-12-08T01:13:57.500Z,101067.28
2022-12-08T01:16:28.669Z,101068.31
2022-12-08T01:18:56.362Z,101067.28
2022-12-08T01:21:22.753Z,101075.31
2022-12-08T01:23:49.246Z,101074.88
2022-12-08T01:26:17.271Z,101067.63
2022-12-08T01:28:43.924Z,101067.63
2022-12-08T01:31:16.701Z,101059.41
2022-12-08T01:33:44.248Z,101056.09
2022-12-08T01:36:24.408Z,101057.75
2022-12-08T01:38:51.553Z,101056.72
2022-12-08T01:41:20.154Z,101067.63
2022-12-08T01:43:57.527Z,101075.47
2022-12-08T01:46:24.169Z,101076.69
2022-12-08T01:48:53.956Z,101072.13
2022-12-08T01:51:20.723Z,101061.63
2022-12-08T01:53:48.353Z,101065.97
2022-12-08T01:56:25.661Z,101067.59
2022-12-08T01:58:54.299Z,101051.50
2022-12-08T02:01:21.071Z,101060.59
2022-12-08T02:03:53.005Z,101060.59
2022-12-08T02:06:19.829Z,101061.03
2022-12-08T02:08:47.461Z,101050.75
2022-12-08T02:11:13.941Z,101050.75
2022-12-08T02:13:42.771Z,101050.13
2022-12-08T02:16:31.947Z,101049.09
2022-12-08T02:19:30.211Z,101036.72
2022-12-08T02:22:09.962Z,101032.16
2022-12-08T02:25:33.942Z,101031.38
2022-12-08T02:28:27.898Z,101031.38
2022-12-08T02:31:10.959Z,101024.34
2022-12-08T02:34:09.023Z,101019.00
2022-12-08T02:37:04.707Z,101019.81
2022-12-08T02:39:43.403Z,101011.56
2022-12-08T02:42:25.763Z,101010.72
2022-12-08T02:45:00.218Z,101022.28
2022-12-08T02:47:28.235Z,101010.50
2022-12-08T02:49:58.883Z,101007.00
2022-12-08T02:52:25.188Z,101004.56
2022-12-08T02:54:55.934Z,100997.53
2022-12-08T02:57:28.910Z,100989.25
2022-12-08T03:00:13.925Z,100984.50
2022-12-08T03:03:09.378Z,100978.34
2022-12-08T03:05:55.743Z,100978.09
2022-12-08T03:08:50.947Z,100967.59
2022-12-08T03:11:26.522Z,100978.94
2022-12-08T03:13:58.063Z,100976.03
2022-12-08T03:16:27.978Z,100975.81
2022-12-08T03:19:18.444Z,100981.78
2022-12-08T03:21:49.901Z,100983.44
2022-12-08T03:24:17.531Z,100980.50
2022-12-08T03:26:50.923Z,100978.44
2022-12-08T03:29:17.702Z,100975.50
2022-12-08T03:31:57.378Z,100978.78
2022-12-08T03:34:28.114Z,100962.69
2022-12-08T03:36:54.534Z,100968.91
2022-12-08T03:39:20.978Z,100962.69
2022-12-08T03:41:47.547Z,100957.34
2022-12-08T03:44:13.907Z,100957.34
2022-12-08T03:46:40.237Z,100943.31
2022-12-08T03:49:06.663Z,100940.06
2022-12-08T03:51:33.043Z,100942.16
2022-12-08T03:53:59.383Z,100938.44
2022-12-08T03:56:36.732Z,100935.16
2022-12-08T03:59:04.373Z,100938.03
2022-12-08T04:01:30.959Z,100925.66
2022-12-08T04:03:57.554Z,100935.78
2022-12-08T04:06:24.563Z,100941.38
2022-12-08T04:08:51.714Z,100939.50
2022-12-08T04:11:19.407Z,100946.75
2022-12-08T04:13:46.546Z,100935.44
2022-12-08T04:16:22.131Z,100927.38
2022-12-08T04:18:48.739Z,100939.75
2022-12-08T04:21:15.288Z,100926.78
2022-12-08T04:23:41.909Z,100926.78
2022-12-08T04:26:08.672Z,100922.47
2022-12-08T04:28:35.364Z,100919.19
2022-12-08T04:31:01.850Z,100913.22
2022-12-08T04:33:28.343Z,100918.34
2022-12-08T04:35:54.674Z,100916.50
2022-12-08T04:38:21.039Z,100922.91
2022-12-08T04:40:47.379Z,100913.81
2022-12-08T04:43:13.747Z,100918.13
2022-12-08T04:45:41.842Z,100913.81
2022-12-08T04:48:09.547Z,100897.72
2022-12-08T04:50:35.910Z,100913.81
2022-12-08T04:53:02.248Z,100913.81
2022-12-08T04:55:28.602Z,100916.06
2022-12-08T04:57:54.968Z,100908.00
2022-12-08T05:00:21.368Z,100909.66
2022-12-08T05:02:47.996Z,100906.38
2022-12-08T05:05:14.395Z,100904.72
2022-12-08T05:07:40.953Z,100907.63
2022-12-08T05:10:08.374Z,100908.00
2022-12-08T05:12:34.743Z,100911.28
2022-12-08T05:15:01.106Z,100902.22
2022-12-08T05:17:27.515Z,100903.84
2022-12-08T05:19:53.901Z,100911.06
2022-12-08T05:22:20.262Z,100914.56
2022-12-08T05:24:47.771Z,100908.63
2022-12-08T05:27:14.854Z,100905.94
2022-12-08T05:29:41.216Z,100909.66
2022-12-08T05:32:07.620Z,100902.66
2022-12-08T05:34:34.077Z,100907.19
2022-12-08T05:37:00.521Z,100907.19
2022-12-08T05:39:26.895Z,100904.72
2022-12-08T05:41:53.236Z,100903.09
2022-12-08T05:44:19.593Z,100905.16
2022-12-08T05:46:45.922Z,100886.59
2022-12-08T05:49:12.756Z,100894.88
2022-12-08T05:51:39.236Z,100893.84
2022-12-08T05:54:05.670Z,100890.31
2022-12-08T05:56:32.026Z,100882.53
2022-12-08T05:58:58.483Z,100893.25
2022-12-08T06:01:30.395Z,100894.28
2022-12-08T06:04:01.571Z,100891.59
2022-12-08T06:06:29.299Z,100886.25
2022-12-08T06:08:55.710Z,100894.50
2022-12-08T06:11:28.669Z,100889.72
2022-12-08T06:13:56.761Z,100889.97
2022-12-08T06:16:24.648Z,100885.63
2022-12-08T06:18:51.046Z,100878.84
2022-12-08T06:21:17.954Z,100882.38
2022-12-08T06:23:47.343Z,100883.41
2022-12-08T06:26:15.188Z,100883.41
2022-12-08T06:28:42.314Z,100871.63
2022-12-08T06:31:18.815Z,100871.84
2022-12-08T06:33:46.299Z,100880.94
2022-12-08T06:36:14.592Z,100881.75
2022-12-08T06:38:43.538Z,100886.28
2022-12-08T06:41:11.304Z,100892.47
2022-12-08T06:43:38.038Z,100889.81
2022-12-08T06:46:06.609Z,100888.97
2022-12-08T06:48:33.150Z,100893.72
2022-12-08T06:51:14.433Z,100889.66
2022-12-08T06:53:41.432Z,100891.28
2022-12-08T06:56:08.558Z,100885.91
2022-12-08T06:58:35.386Z,100894.41
2022-12-08T07:01:11.500Z,100893.81
2022-12-08T07:03:39.755Z,100887.59
2022-12-08T07:06:06.574Z,100885.97
2022-12-08T07:08:34.161Z,100887.00
2022-12-08T07:11:06.787Z,100886.41
2022-12-08T07:13:33.163Z,100885.59
2022-12-08T07:15:59.493Z,100881.28
2022-12-08T07:18:25.851Z,100900.47
2022-12-08T07:20:52.203Z,100891.84
2022-12-08T07:23:18.547Z,100892.88
2022-12-08T07:25:44.991Z,100889.81
2022-12-08T07:28:11.320Z,100892.72
2022-12-08T07:30:38.784Z,100888.19
2022-12-08T07:33:06.144Z,100888.38
2022-12-08T07:35:34.804Z,100885.09
2022-12-08T07:38:01.871Z,100885.34
2022-12-08T07:40:28.554Z,100889.84
2022-12-08T07:42:54.928Z,100886.97
2022-12-08T07:45:21.304Z,100890.47
2022-12-08T07:47:47.663Z,100889.84
2022-12-08T07:50:14.038Z,100888.22
2022-12-08T07:52:40.584Z,100892.78
2022-12-08T07:55:07.233Z,100889.25
2022-12-08T07:57:33.582Z,100889.25
2022-12-08T07:59:59.923Z,100895.66
2022-12-08T08:02:26.583Z,100889.06
2022-12-08T08:04:53.398Z,100881.22
2022-12-08T08:07:19.906Z,100888.44
2022-12-08T08:09:46.362Z,100888.44
2022-12-08T08:15:01.255Z,100885.38
2022-12-08T08:17:28.575Z,100888.06
2022-12-08T08:19:55.105Z,100889.09
2022-12-08T08:22:21.446Z,100898.56
2022-12-08T08:24:47.785Z,100896.09
2022-12-08T08:27:14.145Z,100895.28
2022-12-08T08:29:40.505Z,100906.00
2022-12-08T08:32:07.042Z,100905.16
2022-12-08T08:34:33.405Z,100906.00
2022-12-08T08:36:59.843Z,100906.81
2022-12-08T08:39:26.286Z,100916.72
2022-12-08T08:41:52.852Z,100909.72
2022-12-08T08:44:19.211Z,100920.44
2022-12-08T08:46:45.613Z,100907.25
2022-12-08T08:49:12.066Z,100906.81
2022-12-08T08:51:38.638Z,100908.88
2022-12-08T08:54:05.003Z,100917.53
2022-12-08T08:56:31.471Z,100914.25
2022-12-08T08:58:58.091Z,100911.56
2022-12-08T09:01:27.552Z,100902.47
2022-12-08T09:03:54.498Z,100905.16
2022-12-08T09:06:21.896Z,100903.69
2022-12-08T09:08:49.019Z,100905.16
2022-12-08T09:11:16.218Z,100903.09
2022-12-08T09:13:42.752Z,100899.38
2022-12-08T09:16:10.642Z,100913.81
2022-12-08T09:18:37.078Z,100911.72
2022-12-08T09:21:05.820Z,100901.63
2022-12-08T09:23:35.429Z,100899.34
2022-12-08T09:26:02.850Z,100896.84
2022-12-08T09:28:29.207Z,100900.97
2022-12-08T09:30:55.589Z,100897.47
2022-12-08T09:33:21.964Z,100904.91
2022-12-08T09:35:48.304Z,100903.84
2022-12-08T09:38:15.832Z,100900.13
2022-12-08T09:41:02.831Z,100899.09
2022-12-08T09:43:51.594Z,100903.66
2022-12-08T09:46:19.197Z,100902.63
2022-12-08T09:48:55.554Z,100908.34
2022-12-08T09:51:25.667Z,100905.66
2022-12-08T09:53:57.131Z,100901.75
2022-12-08T09:56:36.159Z,100912.84
2022-12-08T09:59:12.055Z,100907.47
2022-12-08T10:01:41.961Z,100907.47
2022-12-08T10:04:22.045Z,100914.47
2022-12-08T10:07:04.579Z,100914.03
2022-12-08T10:09:49.238Z,100897.97
2022-12-08T10:12:32.778Z,100907.63
2022-12-08T10:15:34.050Z,100908.25
2022-12-08T10:18:03.084Z,100909.66
2022-12-08T10:20:41.548Z,100904.09
2022-12-08T10:23:19.186Z,100893.38
2022-12-08T10:25:50.689Z,100901.16
2022-12-08T10:28:17.150Z,100893.13
2022-12-08T10:30:43.745Z,100898.28
2022-12-08T10:33:15.573Z,100896.22
2022-12-08T10:35:45.630Z,100890.84
2022-12-08T10:38:31.957Z,100895.38
2022-12-08T10:41:14.443Z,100890.84
2022-12-08T10:43:46.210Z,100881.16
2022-12-08T10:46:16.142Z,100881.38
2022-12-08T10:48:51.686Z,100876.84
2022-12-08T10:51:38.187Z,100881.16
2022-12-08T10:54:06.144Z,100886.28
2022-12-08T10:56:33.165Z,100870.00
2022-12-08T10:59:19.958Z,100878.03
2022-12-08T11:01:49.668Z,100880.13
2022-12-08T11:04:19.950Z,100880.13
2022-12-08T11:06:48.023Z,100876.41
2022-12-08T11:09:17.100Z,100886.28
2022-12-08T11:11:57.928Z,100880.13
2022-12-08T11:14:27.418Z,100879.28
2022-12-08T11:17:02.553Z,100880.56
2022-12-08T11:19:28.950Z,100880.56
2022-12-08T11:21:55.301Z,100871.09
2022-12-08T11:24:29.260Z,100878.91
2022-12-08T11:27:03.550Z,100871.91
2022-12-08T11:29:32.691Z,100861.63
2022-12-08T11:32:13.092Z,100861.63
2022-12-08T11:34:58.225Z,100849.72
2022-12-08T11:37:40.552Z,100844.78
2022-12-08T11:40:20.862Z,100838.00
2022-12-08T11:43:02.032Z,100837.19
2022-12-08T11:45:34.839Z,100831.84
2022-12-08T11:48:09.406Z,100829.97
2022-12-08T11:50:43.986Z,100830.34
2022-12-08T11:53:18.840Z,100827.44
2022-12-08T11:56:00.328Z,100821.28
2022-12-08T11:58:36.004Z,100817.16
2022-12-08T12:01:02.784Z,100817.16
2022-12-08T12:03:40.563Z,100819.03
2022-12-08T12:06:53.141Z,100819.63
2022-12-08T12:09:30.056Z,100812.19
2022-12-08T12:12:19.229Z,100819.19
2022-12-08T12:15:11.367Z,100810.09
2022-12-08T12:17:59.236Z,100816.66
2022-12-08T12:20:31.599Z,100813.75
2022-12-08T12:23:23.503Z,100802.22
2022-12-08T12:26:00.227Z,100803.03
2022-12-08T12:28:30.825Z,100800.59
2022-12-08T12:31:08.117Z,100802.59
2022-12-08T12:33:36.074Z,100795.38
2022-12-08T12:36:06.916Z,100795.97
2022-12-08T12:39:01.627Z,100795.97
2022-12-08T12:41:29.474Z,100791.06
2022-12-08T12:44:28.107Z,100786.13
2022-12-08T12:46:59.481Z,100784.09
2022-12-08T12:49:41.075Z,100784.94
2022-12-08T12:52:10.473Z,100786.34
2022-12-08T12:54:42.982Z,100782.84
2022-12-08T12:57:09.675Z,100781.59
2022-12-08T12:59:53.284Z,100789.41
2022-12-08T13:02:24.140Z,100786.50
2022-12-08T13:04:59.526Z,100784.66
2022-12-08T13:07:29.986Z,100778.25
2022-12-08T13:10:01.304Z,100776.16
2022-12-08T13:12:28.253Z,100779.66
2022-12-08T13:15:02.474Z,100774.88
2022-12-08T13:17:31.974Z,100776.75
2022-12-08T13:20:01.597Z,100776.97
2022-12-08T13:23:11.002Z,100779.66
2022-12-08T13:25:40.346Z,100775.13
2022-12-08T13:28:15.757Z,100776.75
2022-12-08T13:30:48.814Z,100773.03
2022-12-08T13:33:19.658Z,100772.44
2022-12-08T13:35:53.394Z,100771.41
2022-12-08T13:38:22.501Z,100760.09
2022-12-08T13:40:50.086Z,100760.72
2022-12-08T13:43:38.760Z,100763.66
2022-12-08T13:57:29.548Z,100770.34
2022-12-08T14:00:01.469Z,100770.09
2022-12-08T14:02:47.711Z,100765.34
2022-12-08T14:05:18.567Z,100769.22
2022-12-08T14:07:47.339Z,100774.38
2022-12-08T14:10:22.064Z,100771.25
2022-12-08T14:12:56.645Z,100778.25
2022-12-08T14:15:25.573Z,100778.25
2022-12-08T14:17:54.273Z,100781.53
2022-12-08T14:20:24.389Z,100779.28
2022-12-08T14:22:52.336Z,100765.88
2022-12-08T14:25:19.842Z,100779.28
2022-12-08T14:27:47.798Z,100769.63
2022-12-08T14:30:14.346Z,100783.66
2022-12-08T14:32:50.695Z,100784.94
2022-12-08T14:35:24.855Z,100779.59
2022-12-08T14:37:55.847Z,100775.25
2022-12-08T14:40:28.675Z,100780.84
2022-12-08T14:43:07.130Z,100774.66
2022-12-08T14:45:54.502Z,100782.72
2022-12-08T14:48:22.122Z,100783.31
2022-12-08T14:51:03.514Z,100780.03
2022-12-08T14:53:40.935Z,100780.63
2022-12-08T14:56:36.798Z,100771.53
2022-12-08T14:59:21.010Z,100774.66
2022-12-08T15:01:49.600Z,100767.06
2022-12-08T15:04:23.265Z,100767.75
2022-12-08T15:06:49.611Z,100765.28
2022-12-08T15:09:28.154Z,100763.63
2022-12-08T15:12:24.815Z,100762.00
2022-12-08T15:15:13.723Z,100766.75
2022-12-08T15:17:40.018Z,100765.72
2022-12-08T15:20:30.159Z,100771.53
2022-12-08T15:23:01.871Z,100771.53
2022-12-08T15:25:28.272Z,100767.19
2022-12-08T15:27:56.359Z,100752.75
2022-12-08T15:30:22.707Z,100758.72
2022-12-08T15:32:52.177Z,100756.03
2022-12-08T15:35:18.683Z,100758.72
2022-12-08T15:37:46.304Z,100756.47
2022-12-08T15:40:18.857Z,100761.25
2022-12-08T15:42:45.688Z,100765.56
2022-12-08T15:45:14.113Z,100764.53
2022-12-08T15:47:42.186Z,100780.16
2022-12-08T15:50:17.269Z,100785.31
2022-12-08T15:52:43.928Z,100773.31
2022-12-08T15:55:20.974Z,100773.13
2022-12-08T15:58:51.278Z,100774.72
2022-12-08T16:00:54.424Z,100772.88
2022-12-08T16:09:13.584Z,100763.34
2022-12-08T16:12:08.477Z,100768.91
2022-12-08T16:17:23.334Z,100774.94
2022-12-08T16:19:49.681Z,100778.97
2022-12-08T16:25:24.540Z,100775.31
2022-12-08T16:28:12.533Z,100773.06
2022-12-08T16:30:40.670Z,100760.94
2022-12-08T16:33:07.133Z,100760.56
2022-12-08T16:35:33.585Z,100755.84
2022-12-08T16:37:59.939Z,100760.25
2022-12-08T16:40:26.312Z,100755.31
2022-12-08T16:42:52.815Z,100751.22
2022-12-08T16:45:29.945Z,100758.66
2022-12-08T16:47:59.050Z,100756.19
2022-12-08T16:50:32.095Z,100761.56
2022-12-08T16:53:04.373Z,100753.72
2022-12-08T16:55:31.153Z,100753.72
2022-12-08T16:57:57.565Z,100760.97
2022-12-08T17:00:26.857Z,100760.72
2022-12-08T17:02:54.654Z,100764.00
2022-12-08T17:05:24.286Z,100761.31
2022-12-08T17:07:52.099Z,100768.13
2022-12-08T17:10:22.914Z,100767.88
2022-12-08T17:12:50.491Z,100761.94
2022-12-08T17:15:19.602Z,100761.94
2022-12-08T17:17:46.099Z,100762.97
2022-12-08T17:20:18.458Z,100762.97
2022-12-08T17:22:45.144Z,100760.72
2022-12-08T17:25:11.791Z,100757.88
2022-12-08T17:27:39.194Z,100755.44
2022-12-08T17:30:07.635Z,100760.19
2022-12-08T17:32:34.291Z,100754.47
2022-12-08T17:35:00.669Z,100747.06
2022-12-08T17:37:27.027Z,100745.66
2022-12-08T17:39:53.401Z,100753.53
2022-12-08T17:42:19.782Z,100754.41
2022-12-08T17:44:46.634Z,100762.88
2022-12-08T17:47:12.987Z,100761.44
2022-12-08T17:49:39.367Z,100758.16
2022-12-08T17:52:09.139Z,100755.09
2022-12-08T17:54:36.396Z,100751.22
2022-12-08T17:57:02.859Z,100754.94
2022-12-08T17:59:30.143Z,100750.38
2022-12-08T18:01:57.631Z,100750.38
2022-12-08T18:04:25.478Z,100754.88
2022-12-08T18:06:51.862Z,100759.59
2022-12-08T18:09:18.787Z,100762.25
2022-12-08T18:11:46.329Z,100757.09
2022-12-08T18:14:14.250Z,100751.75
2022-12-08T18:16:43.309Z,100745.81
2022-12-08T18:19:10.413Z,100756.13
2022-12-08T18:21:36.846Z,100758.63
2022-12-08T18:24:03.679Z,100756.41
2022-12-08T18:26:30.783Z,100759.28
2022-12-08T18:28:57.688Z,100745.09
2022-12-08T18:31:24.866Z,100754.16
2022-12-08T18:33:52.221Z,100758.03
2022-12-08T18:36:21.938Z,100743.81
2022-12-08T18:38:48.564Z,100747.94
2022-12-08T18:41:18.141Z,100743.38
2022-12-08T18:43:44.682Z,100751.66
2022-12-08T18:46:12.817Z,100759.50
2022-12-08T18:48:42.160Z,100760.34
2022-12-08T18:51:16.606Z,100763.47
2022-12-08T18:53:43.658Z,100764.13
2022-12-08T18:56:21.188Z,100755.09
2022-12-08T18:58:47.549Z,100761.28
2022-12-08T19:01:14.811Z,100766.25
2022-12-08T19:03:52.745Z,100769.13
2022-12-08T19:06:29.668Z,100774.47
2022-12-08T19:08:56.483Z,100771.59
2022-12-08T19:11:25.992Z,100771.97
2022-12-08T19:13:53.889Z,100775.25
2022-12-08T19:16:20.474Z,100772.16
2022-12-08T19:18:46.861Z,100774.63
2022-12-08T19:21:13.646Z,100782.63
2022-12-08T19:23:40.923Z,100778.84
2022-12-08T19:26:07.909Z,100777.19
2022-12-08T19:28:35.264Z,100773.25
2022-12-08T19:31:06.327Z,100778.78
2022-12-08T19:33:33.252Z,100769.50
2022-12-08T19:36:05.033Z,100779.38
2022-12-08T19:38:51.342Z,100776.94
2022-12-08T19:41:36.444Z,100780.81
2022-12-08T19:44:21.215Z,100776.69
2022-12-08T19:46:47.668Z,100783.25
2022-12-08T19:49:14.141Z,100789.03
2022-12-08T19:51:40.748Z,100786.94
2022-12-08T19:54:08.691Z,100781.16
2022-12-08T19:56:35.050Z,100779.09
2022-12-08T19:59:01.396Z,100780.94
2022-12-08T20:01:27.821Z,100777.44
2022-12-08T20:03:54.237Z,100785.25
2022-12-08T20:06:21.199Z,100784.00
2022-12-08T20:08:50.532Z,100789.97
2022-12-08T20:11:19.710Z,100788.09
2022-12-08T20:13:47.699Z,100795.31
2022-12-08T20:16:16.061Z,100791.63
2022-12-08T20:18:44.096Z,100797.56
2022-12-08T20:21:12.114Z,100797.13
2022-12-08T20:23:38.521Z,100800.41
2022-12-08T20:26:07.601Z,100790.75
2022-12-08T20:28:35.270Z,100791.78
2022-12-08T20:31:02.454Z,100792.81
2022-12-08T20:33:28.912Z,100797.13
2022-12-08T20:36:00.390Z,100789.09
2022-12-08T20:38:27.812Z,100790.94
2022-12-08T20:40:54.418Z,100797.13
2022-12-08T20:43:20.999Z,100791.78
2022-12-08T20:45:47.532Z,100793.44
2022-12-08T20:48:13.877Z,100802.25
2022-12-08T20:50:40.392Z,100805.78
2022-12-08T20:53:06.882Z,100802.06
2022-12-08T20:55:35.371Z,100802.88
2022-12-08T20:58:02.017Z,100801.03
2022-12-08T21:00:28.576Z,100804.50
2022-12-08T21:02:56.966Z,100806.16
2022-12-08T21:05:23.950Z,100808.63
2022-12-08T21:07:50.555Z,100800.59
2022-12-08T21:10:17.167Z,100808.63
2022-12-08T21:12:43.691Z,100810.69
2022-12-08T21:15:12.345Z,100807.41
2022-12-08T21:17:38.981Z,100809.06
2022-12-08T21:20:06.850Z,100816.06
2022-12-08T21:22:33.539Z,100817.69
2022-12-08T21:24:59.961Z,100813.97
2022-12-08T21:27:26.629Z,100804.31
2022-12-08T21:29:53.231Z,100812.34
2022-12-08T21:32:19.729Z,100812.34
2022-12-08T21:34:46.841Z,100815.81
2022-12-08T21:37:13.334Z,100812.34
2022-12-08T21:39:39.817Z,100813.97
2022-12-08T21:42:27.946Z,100813.13
2022-12-08T21:44:58.866Z,100810.69
2022-12-08T21:47:25.313Z,100810.09
2022-12-08T21:49:51.767Z,100814.41
2022-12-08T21:52:18.129Z,100814.19
2022-12-08T21:54:44.626Z,100806.16
2022-12-08T21:57:12.483Z,100804.91
2022-12-08T21:59:39.052Z,100811.06
2022-12-08T22:02:05.754Z,100816.41
2022-12-08T22:04:32.613Z,100824.69
2022-12-08T22:06:59.120Z,100819.34
2022-12-08T22:09:25.721Z,100819.34
2022-12-08T22:11:52.129Z,100821.41
2022-12-08T22:14:18.893Z,100823.03
2022-12-08T22:16:45.483Z,100821.41
2022-12-08T22:19:12.523Z,100826.75
2022-12-08T22:21:39.196Z,100820.38
2022-12-08T22:24:06.199Z,100827.97
2022-12-08T22:26:33.204Z,100830.41
2022-12-08T22:29:00.172Z,100834.94
2022-12-08T22:31:26.562Z,100832.06
2022-12-08T22:33:53.245Z,100827.97
2022-12-08T22:36:23.357Z,100820.97
2022-12-08T22:38:50.942Z,100821.16
2022-12-08T22:41:18.411Z,100814.41
2022-12-08T22:43:46.511Z,100816.06
2022-12-08T22:46:19.194Z,100822.63
2022-12-08T22:48:45.966Z,100809.22
2022-12-08T22:51:12.902Z,100809.22
2022-12-08T22:53:39.686Z,100807.34
2022-12-08T22:56:08.073Z,100806.53
2022-12-08T22:58:35.343Z,100805.47
2022-12-08T23:01:02.251Z,100803.28
2022-12-08T23:03:28.760Z,100799.97
2022-12-08T23:05:55.452Z,100805.78
2022-12-08T23:08:21.969Z,100808.66
2022-12-08T23:10:51.490Z,100800.03
2022-12-08T23:13:18.610Z,100808.28
2022-12-08T23:15:45.234Z,100813.03
2022-12-08T23:18:15.803Z,100811.38
2022-12-08T23:20:42.276Z,100809.75
2022-12-08T23:23:08.659Z,100805.44
2022-12-08T23:25:35.022Z,100802.16
2022-12-08T23:28:01.535Z,100801.31
2022-12-08T23:30:27.962Z,100802.16
2022-12-08T23:32:55.996Z,100804.81
2022-12-08T23:35:22.949Z,100807.50
2022-12-08T23:37:49.433Z,100796.56
2022-12-08T23:40:16.140Z,100807.06
2022-12-08T23:42:42.582Z,100798.81
2022-12-08T23:45:09.589Z,100806.03
2022-12-08T23:47:36.407Z,100798.00
2022-12-08T23:50:03.331Z,100799.03
2022-12-08T23:52:29.962Z,100802.53
2022-12-08T23:54:56.793Z,100801.72
2022-12-08T23:57:23.406Z,100794.50
2022-12-08T23:59:49.762Z,100787.50
